CMP26 MROC-MPTO
Flight info
| Callsign | CMP26 |
|---|---|
| Flight time | 0h 52m |
| Altitude | 35000 |
| Route | TEJAR3M LIO UA317 BUFEO DCT BITOR VUMAN2C |
| Aircraft | B738/M-SDE2E3FGHIRWXY/LB1 |
Departure
| Time | 2026-04-28 04:21 |
|---|---|
| Airport | Juan Santamaría International Airport (MROC) |
Arrival
| Time | 2026-04-28 05:13 |
|---|---|
| Airport | Tocumen International Airport (MPTO) |
| Time | Latitude | Longitude | Altitude | Speed | Heading |
|---|---|---|---|---|---|
| 2026-04-28 03:14 | 9.99695 | -84.20497 | 3035 ft | 0 kts | 339° |
| 2026-04-28 04:04 | 9.99684 | -84.20492 | 3033 ft | 4 kts | 339° |
| 2026-04-28 04:05 | 9.99659 | -84.20483 | 3036 ft | 4 kts | 339° |
| 2026-04-28 04:05 | 9.99633 | -84.20473 | 3031 ft | 4 kts | 339° |
| 2026-04-28 04:05 | 9.99611 | -84.20465 | 3034 ft | 1 kts | 339° |
| 2026-04-28 04:15 | 9.99616 | -84.20468 | 3032 ft | 7 kts | 328° |
| 2026-04-28 04:15 | 9.99563 | -84.20689 | 3034 ft | 19 kts | 247° |
| 2026-04-28 04:16 | 9.99514 | -84.20819 | 3034 ft | 21 kts | 252° |
| 2026-04-28 04:16 | 9.99451 | -84.20967 | 3026 ft | 27 kts | 222° |
| 2026-04-28 04:16 | 9.99396 | -84.21149 | 3005 ft | 30 kts | 256° |
| 2026-04-28 04:16 | 9.99322 | -84.21327 | 2995 ft | 25 kts | 248° |
| 2026-04-28 04:17 | 9.99251 | -84.21508 | 2981 ft | 30 kts | 248° |
| 2026-04-28 04:17 | 9.99176 | -84.21719 | 2968 ft | 33 kts | 251° |
| 2026-04-28 04:17 | 9.99098 | -84.21943 | 2954 ft | 35 kts | 251° |
| 2026-04-28 04:17 | 9.99072 | -84.22156 | 2940 ft | 31 kts | 244° |
| 2026-04-28 04:18 | 9.99019 | -84.22199 | 2944 ft | 0 kts | 185° |
| 2026-04-28 04:19 | 9.99015 | -84.22199 | 2944 ft | 3 kts | 179° |
| 2026-04-28 04:19 | 9.98955 | -84.22193 | 2948 ft | 14 kts | 173° |
| 2026-04-28 04:20 | 9.98914 | -84.22134 | 2945 ft | 12 kts | 68° |
| 2026-04-28 04:20 | 9.98976 | -84.21972 | 2958 ft | 54 kts | 71° |
| 2026-04-28 04:20 | 9.99213 | -84.21344 | 2990 ft | 134 kts | 69° |
| 2026-04-28 04:20 | 9.99622 | -84.20249 | 3183 ft | 190 kts | 67° |
| 2026-04-28 04:21 | 10.00162 | -84.18995 | 4128 ft | 196 kts | 64° |
| 2026-04-28 04:21 | 10.00670 | -84.17767 | 5457 ft | 179 kts | 67° |
| 2026-04-28 04:21 | 10.01102 | -84.16638 | 6790 ft | 168 kts | 66° |
| 2026-04-28 04:21 | 10.01536 | -84.15522 | 7687 ft | 172 kts | 66° |
| 2026-04-28 04:22 | 10.01980 | -84.14368 | 8446 ft | 180 kts | 71° |
| 2026-04-28 04:22 | 10.02102 | -84.13054 | 8970 ft | 197 kts | 93° |
| 2026-04-28 04:22 | 10.01741 | -84.11628 | 9236 ft | 225 kts | 114° |
| 2026-04-28 04:22 | 10.00751 | -84.10344 | 9776 ft | 238 kts | 137° |
| 2026-04-28 04:23 | 9.99451 | -84.09277 | 10469 ft | 242 kts | 139° |
| 2026-04-28 04:23 | 9.98129 | -84.08195 | 11126 ft | 246 kts | 139° |
| 2026-04-28 04:23 | 9.96788 | -84.07096 | 11811 ft | 249 kts | 139° |
| 2026-04-28 04:23 | 9.95429 | -84.05983 | 12494 ft | 253 kts | 138° |
| 2026-04-28 04:24 | 9.94090 | -84.04885 | 12883 ft | 256 kts | 138° |
| 2026-04-28 04:24 | 9.92665 | -84.03717 | 12975 ft | 260 kts | 139° |
| 2026-04-28 04:24 | 9.91261 | -84.02571 | 12969 ft | 258 kts | 139° |
| 2026-04-28 04:24 | 9.89853 | -84.01447 | 13005 ft | 260 kts | 139° |
| 2026-04-28 04:25 | 9.88376 | -84.00275 | 13159 ft | 281 kts | 140° |
| 2026-04-28 04:25 | 9.86769 | -83.99000 | 13348 ft | 305 kts | 141° |
| 2026-04-28 04:25 | 9.85061 | -83.97646 | 13880 ft | 316 kts | 141° |
| 2026-04-28 04:25 | 9.83451 | -83.96122 | 14474 ft | 319 kts | 122° |
| 2026-04-28 04:26 | 9.82601 | -83.94078 | 15205 ft | 315 kts | 98° |
| 2026-04-28 04:26 | 9.82538 | -83.91869 | 15908 ft | 316 kts | 83° |
| 2026-04-28 04:26 | 9.82836 | -83.89639 | 16485 ft | 323 kts | 81° |
| 2026-04-28 04:26 | 9.83208 | -83.87370 | 17111 ft | 327 kts | 80° |
| 2026-04-28 04:27 | 9.83599 | -83.85067 | 17546 ft | 340 kts | 80° |
| 2026-04-28 04:27 | 9.84005 | -83.82639 | 17665 ft | 359 kts | 80° |
| 2026-04-28 04:27 | 9.84421 | -83.80078 | 17880 ft | 375 kts | 81° |
| 2026-04-28 04:27 | 9.84839 | -83.77443 | 18321 ft | 381 kts | 81° |
| 2026-04-28 04:28 | 9.85256 | -83.74777 | 18834 ft | 384 kts | 81° |
| 2026-04-28 04:28 | 9.85673 | -83.72099 | 19354 ft | 386 kts | 81° |
| 2026-04-28 04:28 | 9.86087 | -83.69431 | 19793 ft | 391 kts | 81° |
| 2026-04-28 04:28 | 9.86509 | -83.66698 | 20250 ft | 395 kts | 82° |
| 2026-04-28 04:29 | 9.86935 | -83.63936 | 20696 ft | 399 kts | 82° |
| 2026-04-28 04:29 | 9.87365 | -83.61144 | 21148 ft | 403 kts | 82° |
| 2026-04-28 04:29 | 9.87799 | -83.58324 | 21583 ft | 406 kts | 82° |
| 2026-04-28 04:29 | 9.88236 | -83.55482 | 22045 ft | 409 kts | 82° |
| 2026-04-28 04:30 | 9.88677 | -83.52617 | 22477 ft | 413 kts | 82° |
| 2026-04-28 04:30 | 9.89122 | -83.49715 | 22849 ft | 419 kts | 82° |
| 2026-04-28 04:30 | 9.89572 | -83.46784 | 23270 ft | 422 kts | 82° |
| 2026-04-28 04:30 | 9.90024 | -83.43833 | 23686 ft | 425 kts | 82° |
| 2026-04-28 04:31 | 9.90480 | -83.40859 | 24031 ft | 428 kts | 82° |
| 2026-04-28 04:31 | 9.90939 | -83.37865 | 24409 ft | 430 kts | 82° |
| 2026-04-28 04:31 | 9.91398 | -83.34864 | 24772 ft | 433 kts | 82° |
| 2026-04-28 04:31 | 9.91861 | -83.31838 | 25086 ft | 436 kts | 83° |
| 2026-04-28 04:32 | 9.92326 | -83.28795 | 25413 ft | 438 kts | 83° |
| 2026-04-28 04:32 | 9.92794 | -83.25729 | 25753 ft | 441 kts | 83° |
| 2026-04-28 04:32 | 9.93264 | -83.22646 | 26106 ft | 444 kts | 83° |
| 2026-04-28 04:32 | 9.93737 | -83.19544 | 26454 ft | 446 kts | 83° |
| 2026-04-28 04:33 | 9.94213 | -83.16419 | 26791 ft | 449 kts | 83° |
| 2026-04-28 04:33 | 9.94691 | -83.13281 | 27108 ft | 452 kts | 83° |
| 2026-04-28 04:33 | 9.95172 | -83.10123 | 27431 ft | 454 kts | 83° |
| 2026-04-28 04:33 | 9.95652 | -83.06946 | 27748 ft | 457 kts | 84° |
| 2026-04-28 04:34 | 9.95840 | -83.03729 | 28044 ft | 457 kts | 94° |
| 2026-04-28 04:34 | 9.95527 | -83.00530 | 28361 ft | 456 kts | 103° |
| 2026-04-28 04:34 | 9.94741 | -82.97427 | 28668 ft | 455 kts | 110° |
| 2026-04-28 04:34 | 9.93742 | -82.94376 | 28975 ft | 457 kts | 111° |
| 2026-04-28 04:35 | 9.92712 | -82.91320 | 29260 ft | 459 kts | 111° |
| 2026-04-28 04:35 | 9.91680 | -82.88245 | 29560 ft | 462 kts | 111° |
| 2026-04-28 04:35 | 9.90657 | -82.85153 | 29838 ft | 464 kts | 111° |
| 2026-04-28 04:35 | 9.89642 | -82.82043 | 30119 ft | 466 kts | 111° |
| 2026-04-28 04:36 | 9.88629 | -82.78908 | 30332 ft | 469 kts | 111° |
| 2026-04-28 04:36 | 9.87616 | -82.75762 | 30548 ft | 471 kts | 111° |
| 2026-04-28 04:36 | 9.86597 | -82.72596 | 30762 ft | 473 kts | 111° |
| 2026-04-28 04:36 | 9.85573 | -82.69416 | 30955 ft | 476 kts | 111° |
| 2026-04-28 04:37 | 9.84542 | -82.66218 | 31146 ft | 478 kts | 111° |
| 2026-04-28 04:37 | 9.83519 | -82.63045 | 31338 ft | 481 kts | 111° |
| 2026-04-28 04:37 | 9.82476 | -82.59816 | 31531 ft | 483 kts | 111° |
| 2026-04-28 04:37 | 9.81426 | -82.56571 | 31722 ft | 485 kts | 111° |
| 2026-04-28 04:38 | 9.80339 | -82.53327 | 31909 ft | 487 kts | 112° |
| 2026-04-28 04:38 | 9.79200 | -82.50035 | 32091 ft | 489 kts | 112° |
| 2026-04-28 04:38 | 9.78076 | -82.46829 | 32319 ft | 490 kts | 112° |
| 2026-04-28 04:38 | 9.76934 | -82.43574 | 32595 ft | 490 kts | 112° |
| 2026-04-28 04:39 | 9.75795 | -82.40318 | 32865 ft | 490 kts | 112° |
| 2026-04-28 04:39 | 9.74658 | -82.37058 | 33126 ft | 490 kts | 112° |
| 2026-04-28 04:39 | 9.73529 | -82.33808 | 33564 ft | 486 kts | 112° |
| 2026-04-28 04:39 | 9.72409 | -82.30577 | 33905 ft | 486 kts | 112° |
| 2026-04-28 04:40 | 9.71287 | -82.27342 | 34085 ft | 488 kts | 112° |
| 2026-04-28 04:40 | 9.70160 | -82.24093 | 34298 ft | 489 kts | 112° |
| 2026-04-28 04:40 | 9.69032 | -82.20845 | 34614 ft | 487 kts | 112° |
| 2026-04-28 04:40 | 9.67913 | -82.17619 | 34965 ft | 484 kts | 112° |
| 2026-04-28 04:41 | 9.66797 | -82.14404 | 35290 ft | 482 kts | 112° |
| 2026-04-28 04:41 | 9.65684 | -82.11203 | 35562 ft | 482 kts | 112° |
| 2026-04-28 04:41 | 9.64571 | -82.08002 | 35816 ft | 481 kts | 112° |
| 2026-04-28 04:41 | 9.63458 | -82.04804 | 36092 ft | 480 kts | 112° |
| 2026-04-28 04:42 | 9.62350 | -82.01609 | 36390 ft | 479 kts | 111° |
| 2026-04-28 04:42 | 9.61257 | -81.98433 | 36674 ft | 478 kts | 112° |
| 2026-04-28 04:42 | 9.60156 | -81.95253 | 36929 ft | 477 kts | 112° |
| 2026-04-28 04:42 | 9.59053 | -81.92080 | 37191 ft | 476 kts | 112° |
| 2026-04-28 04:43 | 9.57954 | -81.88924 | 37454 ft | 475 kts | 112° |
| 2026-04-28 04:43 | 9.56852 | -81.85768 | 37727 ft | 474 kts | 112° |
| 2026-04-28 04:43 | 9.55764 | -81.82659 | 37976 ft | 473 kts | 112° |
| 2026-04-28 04:43 | 9.54666 | -81.79520 | 38225 ft | 472 kts | 112° |
| 2026-04-28 04:44 | 9.53566 | -81.76390 | 38469 ft | 472 kts | 112° |
| 2026-04-28 04:44 | 9.52458 | -81.73256 | 38691 ft | 471 kts | 112° |
| 2026-04-28 04:44 | 9.51367 | -81.70131 | 38866 ft | 470 kts | 112° |
| 2026-04-28 04:44 | 9.50282 | -81.67007 | 38975 ft | 471 kts | 112° |
| 2026-04-28 04:45 | 9.49191 | -81.63867 | 38965 ft | 474 kts | 112° |
| 2026-04-28 04:45 | 9.46997 | -81.57584 | 38977 ft | 472 kts | 112° |
| 2026-04-28 04:46 | 9.44808 | -81.51332 | 38974 ft | 470 kts | 112° |
| 2026-04-28 04:46 | 9.42629 | -81.45111 | 38974 ft | 468 kts | 112° |
| 2026-04-28 04:47 | 9.40455 | -81.38905 | 38975 ft | 467 kts | 112° |
| 2026-04-28 04:47 | 9.38285 | -81.32713 | 38975 ft | 466 kts | 112° |
| 2026-04-28 04:48 | 9.36116 | -81.26528 | 38970 ft | 466 kts | 112° |
| 2026-04-28 04:48 | 9.33944 | -81.20340 | 38976 ft | 467 kts | 112° |
| 2026-04-28 04:49 | 9.31767 | -81.14139 | 38979 ft | 468 kts | 112° |
| 2026-04-28 04:49 | 9.29584 | -81.07924 | 38808 ft | 472 kts | 112° |
| 2026-04-28 04:49 | 9.28473 | -81.04767 | 38281 ft | 477 kts | 112° |
| 2026-04-28 04:50 | 9.27374 | -81.01637 | 38372 ft | 469 kts | 112° |
| 2026-04-28 04:50 | 9.25219 | -80.95404 | 38451 ft | 469 kts | 112° |
| 2026-04-28 04:51 | 9.23100 | -80.89128 | 38451 ft | 473 kts | 111° |
| 2026-04-28 04:51 | 9.20967 | -80.82806 | 38231 ft | 478 kts | 112° |
| 2026-04-28 04:51 | 9.19888 | -80.79619 | 37701 ft | 479 kts | 112° |
| 2026-04-28 04:52 | 9.18812 | -80.76448 | 37125 ft | 473 kts | 112° |
| 2026-04-28 04:52 | 9.17754 | -80.73326 | 36577 ft | 467 kts | 112° |
| 2026-04-28 04:52 | 9.16701 | -80.70222 | 36036 ft | 466 kts | 112° |
| 2026-04-28 04:52 | 9.16002 | -80.68163 | 35695 ft | 465 kts | 112° |
| 2026-04-28 04:53 | 9.14949 | -80.65068 | 35171 ft | 465 kts | 112° |
| 2026-04-28 04:53 | 9.13895 | -80.61972 | 34565 ft | 467 kts | 112° |
| 2026-04-28 04:53 | 9.12836 | -80.58860 | 33982 ft | 468 kts | 112° |
| 2026-04-28 04:53 | 9.11777 | -80.55748 | 33328 ft | 469 kts | 112° |
| 2026-04-28 04:54 | 9.10715 | -80.52627 | 32684 ft | 469 kts | 112° |
| 2026-04-28 04:54 | 9.09311 | -80.48498 | 31849 ft | 469 kts | 112° |
| 2026-04-28 04:54 | 9.08596 | -80.46391 | 31433 ft | 468 kts | 112° |
| 2026-04-28 04:54 | 9.07540 | -80.43272 | 30827 ft | 469 kts | 112° |
| 2026-04-28 04:55 | 9.06484 | -80.40154 | 30233 ft | 470 kts | 112° |
| 2026-04-28 04:55 | 9.05545 | -80.36962 | 29581 ft | 479 kts | 107° |
| 2026-04-28 04:55 | 9.04854 | -80.33644 | 28916 ft | 484 kts | 103° |
| 2026-04-28 04:55 | 9.04284 | -80.30289 | 28424 ft | 478 kts | 102° |
| 2026-04-28 04:56 | 9.03769 | -80.27051 | 28288 ft | 455 kts | 102° |
| 2026-04-28 04:56 | 9.03264 | -80.23954 | 28173 ft | 437 kts | 102° |
| 2026-04-28 04:56 | 9.02751 | -80.20974 | 27997 ft | 426 kts | 103° |
| 2026-04-28 04:56 | 9.02216 | -80.18020 | 27379 ft | 427 kts | 103° |
| 2026-04-28 04:57 | 9.01662 | -80.15072 | 26759 ft | 428 kts | 103° |
| 2026-04-28 04:57 | 9.01101 | -80.12121 | 26134 ft | 426 kts | 103° |
| 2026-04-28 04:57 | 9.00544 | -80.09194 | 25513 ft | 422 kts | 102° |
| 2026-04-28 04:57 | 8.99993 | -80.06286 | 24902 ft | 419 kts | 102° |
| 2026-04-28 04:58 | 8.99454 | -80.03436 | 24309 ft | 416 kts | 102° |
| 2026-04-28 04:58 | 8.98913 | -80.00568 | 23719 ft | 413 kts | 101° |
| 2026-04-28 04:58 | 8.98371 | -79.97684 | 23055 ft | 411 kts | 101° |
| 2026-04-28 04:58 | 8.97837 | -79.94857 | 22374 ft | 408 kts | 101° |
| 2026-04-28 04:59 | 8.97307 | -79.92055 | 21704 ft | 405 kts | 101° |
| 2026-04-28 04:59 | 8.96989 | -79.89281 | 21026 ft | 402 kts | 86° |
| 2026-04-28 04:59 | 8.97570 | -79.86538 | 20401 ft | 398 kts | 68° |
| 2026-04-28 04:59 | 8.98906 | -79.84116 | 19783 ft | 394 kts | 54° |
| 2026-04-28 05:00 | 9.00505 | -79.81886 | 19178 ft | 390 kts | 53° |
| 2026-04-28 05:00 | 9.02116 | -79.79686 | 18571 ft | 387 kts | 53° |
| 2026-04-28 05:00 | 9.03704 | -79.77512 | 17936 ft | 383 kts | 53° |
| 2026-04-28 05:00 | 9.05271 | -79.75342 | 17255 ft | 380 kts | 54° |
| 2026-04-28 05:01 | 9.06815 | -79.73186 | 16597 ft | 377 kts | 54° |
| 2026-04-28 05:01 | 9.08338 | -79.71046 | 15938 ft | 374 kts | 54° |
| 2026-04-28 05:01 | 9.09852 | -79.68916 | 15305 ft | 371 kts | 54° |
| 2026-04-28 05:01 | 9.11352 | -79.66804 | 14710 ft | 369 kts | 54° |
| 2026-04-28 05:02 | 9.12843 | -79.64705 | 14097 ft | 366 kts | 54° |
| 2026-04-28 05:02 | 9.14325 | -79.62618 | 13433 ft | 364 kts | 54° |
| 2026-04-28 05:02 | 9.15801 | -79.60538 | 12751 ft | 362 kts | 54° |
| 2026-04-28 05:02 | 9.17262 | -79.58480 | 12098 ft | 359 kts | 54° |
| 2026-04-28 05:03 | 9.18711 | -79.56437 | 11449 ft | 355 kts | 54° |
| 2026-04-28 05:03 | 9.20142 | -79.54422 | 10886 ft | 348 kts | 54° |
| 2026-04-28 05:03 | 9.21536 | -79.52461 | 10451 ft | 338 kts | 54° |
| 2026-04-28 05:03 | 9.22888 | -79.50549 | 10007 ft | 330 kts | 56° |
| 2026-04-28 05:04 | 9.24000 | -79.48547 | 9553 ft | 323 kts | 64° |
| 2026-04-28 05:04 | 9.24901 | -79.46491 | 9085 ft | 317 kts | 66° |
| 2026-04-28 05:04 | 9.25750 | -79.44453 | 8612 ft | 311 kts | 66° |
| 2026-04-28 05:04 | 9.26591 | -79.42452 | 8157 ft | 306 kts | 66° |
| 2026-04-28 05:05 | 9.27430 | -79.40486 | 7696 ft | 303 kts | 66° |
| 2026-04-28 05:05 | 9.28271 | -79.38545 | 7245 ft | 299 kts | 65° |
| 2026-04-28 05:05 | 9.29111 | -79.36631 | 6804 ft | 296 kts | 65° |
| 2026-04-28 05:05 | 9.29949 | -79.34741 | 6365 ft | 293 kts | 65° |
| 2026-04-28 05:06 | 9.30783 | -79.32868 | 5904 ft | 290 kts | 65° |
| 2026-04-28 05:06 | 9.31605 | -79.31015 | 5435 ft | 287 kts | 65° |
| 2026-04-28 05:06 | 9.32408 | -79.29176 | 5037 ft | 283 kts | 69° |
| 2026-04-28 05:06 | 9.32689 | -79.27293 | 4943 ft | 269 kts | 94° |
| 2026-04-28 05:07 | 9.32202 | -79.25519 | 4859 ft | 258 kts | 114° |
| 2026-04-28 05:07 | 9.31120 | -79.24084 | 4660 ft | 254 kts | 142° |
| 2026-04-28 05:07 | 9.29549 | -79.23401 | 4479 ft | 248 kts | 170° |
| 2026-04-28 05:07 | 9.27842 | -79.23462 | 4319 ft | 241 kts | 193° |
| 2026-04-28 05:08 | 9.26329 | -79.24109 | 4189 ft | 232 kts | 208° |
| 2026-04-28 05:08 | 9.24997 | -79.24913 | 4014 ft | 220 kts | 211° |
| 2026-04-28 05:08 | 9.23730 | -79.25703 | 3820 ft | 208 kts | 210° |
| 2026-04-28 05:08 | 9.22512 | -79.26458 | 3481 ft | 205 kts | 210° |
| 2026-04-28 05:09 | 9.21295 | -79.27207 | 3095 ft | 204 kts | 211° |
| 2026-04-28 05:09 | 9.20093 | -79.27940 | 2711 ft | 199 kts | 210° |
| 2026-04-28 05:09 | 9.18898 | -79.28667 | 2320 ft | 200 kts | 209° |
| 2026-04-28 05:09 | 9.17761 | -79.29358 | 2219 ft | 180 kts | 211° |
| 2026-04-28 05:10 | 9.16846 | -79.30116 | 2256 ft | 164 kts | 224° |
| 2026-04-28 05:10 | 9.16048 | -79.30940 | 2239 ft | 165 kts | 225° |
| 2026-04-28 05:10 | 9.15257 | -79.31777 | 2229 ft | 164 kts | 227° |
| 2026-04-28 05:10 | 9.14508 | -79.32601 | 2194 ft | 155 kts | 232° |
| 2026-04-28 05:11 | 9.13913 | -79.33501 | 2020 ft | 148 kts | 241° |
| 2026-04-28 05:11 | 9.13311 | -79.34262 | 1924 ft | 134 kts | 225° |
| 2026-04-28 05:11 | 9.12604 | -79.34930 | 1659 ft | 148 kts | 220° |
| 2026-04-28 05:11 | 9.11760 | -79.35520 | 1558 ft | 147 kts | 209° |
| 2026-04-28 05:12 | 9.10832 | -79.36008 | 1257 ft | 152 kts | 204° |
| 2026-04-28 05:12 | 9.09863 | -79.36459 | 971 ft | 155 kts | 206° |
| 2026-04-28 05:12 | 9.08887 | -79.36973 | 594 ft | 160 kts | 208° |
| 2026-04-28 05:12 | 9.07925 | -79.37504 | 310 ft | 156 kts | 207° |
| 2026-04-28 05:13 | 9.06993 | -79.38005 | 43 ft | 148 kts | 207° |
| 2026-04-28 05:13 | 9.06196 | -79.38451 | 29 ft | 90 kts | 209° |
| 2026-04-28 05:13 | 9.05869 | -79.38644 | 31 ft | 45 kts | 210° |
| 2026-04-28 05:13 | 9.05660 | -79.38752 | 31 ft | 22 kts | 208° |
| 2026-04-28 05:14 | 9.05520 | -79.38830 | 29 ft | 26 kts | 211° |
| 2026-04-28 05:14 | 9.05449 | -79.38952 | 29 ft | 21 kts | 289° |
| 2026-04-28 05:14 | 9.05536 | -79.38995 | 29 ft | 17 kts | 15° |
| 2026-04-28 05:14 | 9.05627 | -79.39024 | 29 ft | 10 kts | 321° |
| 2026-04-28 05:15 | 9.05684 | -79.39095 | 29 ft | 16 kts | 312° |
| 2026-04-28 05:15 | 9.05797 | -79.39130 | 29 ft | 21 kts | 19° |
| 2026-04-28 05:15 | 9.05908 | -79.39144 | 29 ft | 16 kts | 303° |
| 2026-04-28 05:15 | 9.05968 | -79.39254 | 29 ft | 19 kts | 323° |
| 2026-04-28 05:16 | 9.06043 | -79.39248 | 29 ft | 5 kts | 100° |
| 2026-04-28 05:16 | 9.06038 | -79.39238 | 29 ft | 0 kts | 120° |